Time,TemperatureF,DewpointF,PressureIn,WindDirection,WindDirectionDegrees,WindSpeedMPH,WindSpeedGustMPH,Humidity,HourlyPrecipIn,Conditions,Clouds,dailyrainin,SolarRadiationWatts/m^2,SoftwareType,DateUTC
2013-01-14 00:04:00,30.3,15.0,30.10,ESE,108,0.0,1.0,54,0.00,,,0.00,0,weatherlink.com 1.10,2013-01-14 07:04:00,
2013-01-14 00:19:00,29.9,15.0,30.10,ESE,108,0.0,2.0,55,0.00,,,0.00,0,weatherlink.com 1.10,2013-01-14 07:19:00,
2013-01-14 00:34:00,29.7,16.0,30.09,ESE,107,0.0,2.0,56,0.00,,,0.00,0,weatherlink.com 1.10,2013-01-14 07:34:00,
2013-01-14 00:49:00,29.3,16.0,30.09,ESE,107,0.0,4.0,57,0.00,,,0.00,0,weatherlink.com 1.10,2013-01-14 07:49:00,
2013-01-14 01:04:00,29.1,15.0,30.10,ESE,107,0.0,0.0,57,0.00,,,0.00,0,weatherlink.com 1.10,2013-01-14 08:04:00,
2013-01-14 01:19:00,28.8,16.0,30.10,ESE,107,0.0,0.0,58,0.00,,,0.00,0,weatherlink.com 1.10,2013-01-14 08:19:00,
2013-01-14 01:34:00,28.8,16.0,30.10,ESE,107,0.0,1.0,58,0.00,,,0.00,0,weatherlink.com 1.10,2013-01-14 08:34:00,
2013-01-14 02:04:00,28.5,16.0,30.09,ESE,107,0.0,1.0,59,0.00,,,0.00,0,weatherlink.com 1.10,2013-01-14 09:04:00,
2013-01-14 02:19:00,28.1,15.0,30.09,ESE,107,0.0,0.0,59,0.00,,,0.00,0,weatherlink.com 1.10,2013-01-14 09:19:00,
2013-01-14 02:34:00,27.6,15.0,30.11,ESE,107,0.0,0.0,60,0.00,,,0.00,0,weatherlink.com 1.10,2013-01-14 09:34:00,
2013-01-14 02:49:00,27.2,16.0,30.11,ESE,107,0.0,0.0,62,0.00,,,0.00,0,weatherlink.com 1.10,2013-01-14 09:49:00,
2013-01-14 03:04:00,27.9,17.0,30.11,ESE,107,2.0,3.0,65,0.00,,,0.00,0,weatherlink.com 1.10,2013-01-14 10:04:00,
2013-01-14 03:19:00,28.6,18.0,30.10,ESE,107,0.0,7.0,66,0.00,,,0.00,0,weatherlink.com 1.10,2013-01-14 10:19:00,
2013-01-14 03:35:00,28.7,19.0,30.10,East,98,2.0,8.0,67,0.00,,,0.00,0,weatherlink.com 1.10,2013-01-14 10:35:00,
2013-01-14 03:50:00,28.5,19.0,30.10,East,93,3.0,8.0,68,0.00,,,0.00,0,weatherlink.com 1.10,2013-01-14 10:50:00,
2013-01-14 04:05:00,28.1,19.0,30.10,East,93,0.0,2.0,69,0.00,,,0.00,0,weatherlink.com 1.10,2013-01-14 11:05:00,
2013-01-14 04:20:00,28.0,19.0,30.10,East,93,0.0,6.0,70,0.00,,,0.00,0,weatherlink.com 1.10,2013-01-14 11:20:00,
2013-01-14 04:35:00,27.8,20.0,30.10,East,93,0.0,1.0,71,0.00,,,0.00,0,weatherlink.com 1.10,2013-01-14 11:35:00,
2013-01-14 04:50:00,27.6,19.0,30.10,East,92,0.0,6.0,71,0.00,,,0.00,0,weatherlink.com 1.10,2013-01-14 11:50:00,
2013-01-14 05:05:00,27.5,20.0,30.09,East,91,7.0,7.0,72,0.00,,,0.00,0,weatherlink.com 1.10,2013-01-14 12:05:00,
2013-01-14 05:20:00,27.3,20.0,30.09,East,79,6.0,8.0,73,0.00,,,0.00,0,weatherlink.com 1.10,2013-01-14 12:20:00,
2013-01-14 05:50:00,26.4,19.0,30.09,ENE,67,1.0,7.0,74,0.00,,,0.00,0,weatherlink.com 1.10,2013-01-14 12:50:00,
2013-01-14 06:08:00,26.0,19.0,30.09,ENE,65,4.0,7.0,75,0.00,,,0.00,0,weatherlink.com 1.10,2013-01-14 13:08:00,
2013-01-14 06:20:00,25.8,19.0,30.10,ENE,65,1.0,8.0,76,0.00,,,0.00,0,weatherlink.com 1.10,2013-01-14 13:20:00,
2013-01-14 06:35:00,25.5,19.0,30.11,ENE,65,1.0,4.0,76,0.00,,,0.00,0,weatherlink.com 1.10,2013-01-14 13:35:00,
2013-01-14 06:50:00,25.4,19.0,30.11,ENE,64,2.0,5.0,77,0.00,,,0.00,0,weatherlink.com 1.10,2013-01-14 13:50:00,
2013-01-14 07:05:00,25.3,19.0,30.12,ENE,63,0.0,5.0,78,0.00,,,0.00,5,weatherlink.com 1.10,2013-01-14 14:05:00,
2013-01-14 07:20:00,25.3,19.0,30.12,ENE,63,0.0,7.0,78,0.00,,,0.00,12,weatherlink.com 1.10,2013-01-14 14:20:00,
2013-01-14 07:35:00,25.8,20.0,30.13,ENE,61,0.0,8.0,78,0.00,,,0.00,25,weatherlink.com 1.10,2013-01-14 14:35:00,
2013-01-14 07:50:00,26.9,21.0,30.14,ENE,61,2.0,2.0,77,0.00,,,0.00,67,weatherlink.com 1.10,2013-01-14 14:50:00,
2013-01-14 08:05:00,27.4,21.0,30.14,ENE,61,0.0,6.0,76,0.00,,,0.00,111,weatherlink.com 1.10,2013-01-14 15:05:00,
2013-01-14 08:20:00,28.1,21.0,30.15,ENE,61,1.0,3.0,74,0.00,,,0.00,165,weatherlink.com 1.10,2013-01-14 15:20:00,
2013-01-14 08:35:00,28.7,21.0,30.15,NE,53,0.0,10.0,73,0.00,,,0.00,221,weatherlink.com 1.10,2013-01-14 15:35:00,
2013-01-14 08:51:00,29.6,21.0,30.16,ENE,57,7.0,7.0,71,0.00,,,0.00,271,weatherlink.com 1.10,2013-01-14 15:51:00,
2013-01-14 09:06:00,30.6,22.0,30.15,ENE,59,3.0,8.0,69,0.00,,,0.00,315,weatherlink.com 1.10,2013-01-14 16:06:00,
2013-01-14 09:21:00,31.6,21.0,30.14,ENE,57,4.0,9.0,66,0.00,,,0.00,353,weatherlink.com 1.10,2013-01-14 16:21:00,
2013-01-14 09:36:00,32.4,21.0,30.15,ENE,57,0.0,8.0,64,0.00,,,0.00,392,weatherlink.com 1.10,2013-01-14 16:36:00,
2013-01-14 09:51:00,33.0,22.0,30.15,ENE,59,0.0,7.0,63,0.00,,,0.00,429,weatherlink.com 1.10,2013-01-14 16:51:00,
2013-01-14 10:06:00,34.1,22.0,30.15,ENE,61,1.0,6.0,61,0.00,,,0.00,459,weatherlink.com 1.10,2013-01-14 17:06:00,
2013-01-14 10:21:00,34.3,22.0,30.14,ENE,68,0.0,8.0,60,0.00,,,0.00,494,weatherlink.com 1.10,2013-01-14 17:21:00,
2013-01-14 10:36:00,35.1,21.0,30.12,ENE,75,0.0,8.0,58,0.00,,,0.00,520,weatherlink.com 1.10,2013-01-14 17:36:00,
2013-01-14 10:51:00,36.1,21.0,30.12,East,84,0.0,9.0,55,0.00,,,0.00,543,weatherlink.com 1.10,2013-01-14 17:51:00,
2013-01-14 11:06:00,36.6,21.0,30.11,East,98,1.0,10.0,54,0.00,,,0.00,563,weatherlink.com 1.10,2013-01-14 18:06:00,
2013-01-14 11:21:00,36.8,21.0,30.11,ESE,113,4.0,9.0,54,0.00,,,0.00,578,weatherlink.com 1.10,2013-01-14 18:21:00,
2013-01-14 11:36:00,37.0,22.0,30.10,ESE,115,0.0,11.0,54,0.00,,,0.00,592,weatherlink.com 1.10,2013-01-14 18:36:00,
2013-01-14 11:51:00,37.5,22.0,30.08,ESE,114,0.0,7.0,53,0.00,,,0.00,594,weatherlink.com 1.10,2013-01-14 18:51:00,
2013-01-14 12:06:00,38.3,21.0,30.07,ESE,118,0.0,9.0,51,0.00,,,0.00,603,weatherlink.com 1.10,2013-01-14 19:06:00,
2013-01-14 12:21:00,39.6,21.0,30.06,ESE,119,1.0,7.0,48,0.00,,,0.00,605,weatherlink.com 1.10,2013-01-14 19:21:00,
2013-01-14 12:36:00,40.0,22.0,30.05,ESE,122,1.0,7.0,48,0.00,,,0.00,599,weatherlink.com 1.10,2013-01-14 19:36:00,
2013-01-14 12:52:00,40.9,21.0,30.05,ESE,122,0.0,7.0,45,0.00,,,0.00,591,weatherlink.com 1.10,2013-01-14 19:52:00,
2013-01-14 13:22:00,41.6,20.0,30.04,SE,130,0.0,8.0,43,0.00,,,0.00,568,weatherlink.com 1.10,2013-01-14 20:22:00,
2013-01-14 13:37:00,42.4,20.0,30.04,SE,129,1.0,2.0,41,0.00,,,0.00,547,weatherlink.com 1.10,2013-01-14 20:37:00,
2013-01-14 13:52:00,43.3,18.0,30.04,SE,134,2.0,6.0,37,0.00,,,0.00,522,weatherlink.com 1.10,2013-01-14 20:52:00,
2013-01-14 14:07:00,43.3,18.0,30.04,SE,145,2.0,2.0,37,0.00,,,0.00,496,weatherlink.com 1.10,2013-01-14 21:07:00,
2013-01-14 14:22:00,43.8,19.0,30.04,SSE,151,0.0,2.0,37,0.00,,,0.00,473,weatherlink.com 1.10,2013-01-14 21:22:00,
2013-01-14 14:37:00,44.6,18.0,30.04,SSE,150,1.0,2.0,35,0.00,,,0.00,457,weatherlink.com 1.10,2013-01-14 21:37:00,
2013-01-14 14:52:00,44.5,19.0,30.04,SSE,152,1.0,4.0,36,0.00,,,0.00,355,weatherlink.com 1.10,2013-01-14 21:52:00,
2013-01-14 15:07:00,43.2,18.0,30.04,SSE,155,0.0,5.0,36,0.00,,,0.00,83,weatherlink.com 1.10,2013-01-14 22:07:00,
2013-01-14 15:22:00,43.3,17.0,30.04,SSE,161,1.0,3.0,35,0.00,,,0.00,67,weatherlink.com 1.10,2013-01-14 22:22:00,
2013-01-14 15:37:00,44.2,17.0,30.05,South,175,6.0,8.0,33,0.00,,,0.00,279,weatherlink.com 1.10,2013-01-14 22:37:00,
2013-01-14 15:52:00,45.1,15.0,30.05,South,185,3.0,4.0,30,0.00,,,0.00,229,weatherlink.com 1.10,2013-01-14 22:52:00,
2013-01-14 16:07:00,45.2,14.0,30.05,West,276,0.0,11.0,28,0.00,,,0.00,181,weatherlink.com 1.10,2013-01-14 23:07:00,
2013-01-14 16:22:00,44.7,12.0,30.06,WSW,248,0.0,11.0,27,0.00,,,0.00,125,weatherlink.com 1.10,2013-01-14 23:22:00,
2013-01-14 16:38:00,44.3,12.0,30.06,WSW,245,1.0,5.0,27,0.00,,,0.00,77,weatherlink.com 1.10,2013-01-14 23:38:00,
2013-01-14 16:52:00,43.4,11.0,30.06,SW,234,1.0,6.0,27,0.00,,,0.00,35,weatherlink.com 1.10,2013-01-14 23:52:00,
2013-01-14 17:07:00,42.3,10.0,30.07,WSW,244,4.0,6.0,27,0.00,,,0.00,12,weatherlink.com 1.10,2013-01-15 00:07:00,
2013-01-14 17:22:00,41.6,10.0,30.07,WSW,244,0.0,5.0,27,0.00,,,0.00,5,weatherlink.com 1.10,2013-01-15 00:22:00,
2013-01-14 17:37:00,41.1,9.0,30.08,WSW,244,0.0,1.0,27,0.00,,,0.00,0,weatherlink.com 1.10,2013-01-15 00:37:00,
2013-01-14 17:52:00,40.3,9.0,30.08,WSW,244,0.0,0.0,27,0.00,,,0.00,0,weatherlink.com 1.10,2013-01-15 00:52:00,
2013-01-14 18:07:00,39.7,8.0,30.09,WSW,244,0.0,0.0,27,0.00,,,0.00,0,weatherlink.com 1.10,2013-01-15 01:07:00,
2013-01-14 18:22:00,38.9,8.0,30.10,WSW,244,0.0,0.0,28,0.00,,,0.00,0,weatherlink.com 1.10,2013-01-15 01:22:00,
2013-01-14 18:37:00,38.6,6.0,30.11,WSW,246,0.0,5.0,26,0.00,,,0.00,0,weatherlink.com 1.10,2013-01-15 01:37:00,
2013-01-14 18:52:00,37.8,6.0,30.12,WSW,248,0.0,1.0,27,0.00,,,0.00,0,weatherlink.com 1.10,2013-01-15 01:52:00,
2013-01-14 19:07:00,37.1,7.0,30.12,WSW,248,0.0,1.0,28,0.00,,,0.00,0,weatherlink.com 1.10,2013-01-15 02:07:00,
2013-01-14 19:22:00,36.4,6.0,30.12,WSW,248,0.0,1.0,28,0.00,,,0.00,0,weatherlink.com 1.10,2013-01-15 02:22:00,
2013-01-14 19:37:00,36.1,6.0,30.12,WSW,248,0.0,0.0,28,0.00,,,0.00,0,weatherlink.com 1.10,2013-01-15 02:37:00,
2013-01-14 19:52:00,35.9,5.0,30.12,WSW,248,0.0,1.0,27,0.00,,,0.00,0,weatherlink.com 1.10,2013-01-15 02:52:00,
2013-01-14 20:08:00,35.7,5.0,30.12,WSW,248,0.0,0.0,27,0.00,,,0.00,0,weatherlink.com 1.10,2013-01-15 03:08:00,
2013-01-14 20:22:00,35.3,5.0,30.12,WSW,248,0.0,0.0,28,0.00,,,0.00,0,weatherlink.com 1.10,2013-01-15 03:22:00,
2013-01-14 20:37:00,34.6,5.0,30.12,WSW,248,0.0,0.0,29,0.00,,,0.00,0,weatherlink.com 1.10,2013-01-15 03:37:00,
2013-01-14 20:52:00,34.2,5.0,30.11,WSW,248,0.0,3.0,29,0.00,,,0.00,0,weatherlink.com 1.10,2013-01-15 03:52:00,
2013-01-14 21:22:00,33.7,4.0,30.12,WSW,252,0.0,1.0,28,0.00,,,0.00,0,weatherlink.com 1.10,2013-01-15 04:22:00,
2013-01-14 21:37:00,33.7,4.0,30.12,WSW,252,0.0,5.0,28,0.00,,,0.00,0,weatherlink.com 1.10,2013-01-15 04:37:00,
2013-01-14 21:52:00,33.6,4.0,30.13,WSW,252,0.0,0.0,28,0.00,,,0.00,0,weatherlink.com 1.10,2013-01-15 04:52:00,
2013-01-14 22:07:00,33.1,3.0,30.12,WSW,252,0.0,0.0,28,0.00,,,0.00,0,weatherlink.com 1.10,2013-01-15 05:07:00,
2013-01-14 22:22:00,32.7,4.0,30.12,WSW,252,0.0,0.0,30,0.00,,,0.00,0,weatherlink.com 1.10,2013-01-15 05:22:00,
2013-01-14 22:37:00,32.0,4.0,30.12,WSW,252,0.0,0.0,31,0.00,,,0.00,0,weatherlink.com 1.10,2013-01-15 05:37:00,
2013-01-14 22:52:00,31.4,5.0,30.12,WSW,252,0.0,0.0,32,0.00,,,0.00,0,weatherlink.com 1.10,2013-01-15 05:52:00,
2013-01-14 23:07:00,30.7,5.0,30.12,WSW,252,0.0,0.0,33,0.00,,,0.00,0,weatherlink.com 1.10,2013-01-15 06:07:00,
2013-01-14 23:22:00,30.1,4.0,30.12,WSW,252,0.0,0.0,33,0.00,,,0.00,0,weatherlink.com 1.10,2013-01-15 06:22:00,
2013-01-14 23:37:00,29.6,5.0,30.12,WSW,252,0.0,0.0,35,0.00,,,0.00,0,weatherlink.com 1.10,2013-01-15 06:37:00,
2013-01-14 23:52:00,29.6,5.0,30.13,WSW,252,0.0,1.0,35,0.00,,,0.00,0,weatherlink.com 1.10,2013-01-15 06:52:00,